sensor_id;sensor_type;location;lat;lon;timestamp;P1;durP1;ratioP1;P2;durP2;ratioP2
239;SDS011;104;53.590;10.004;2023-04-03T00:01:37;9.47;;;5.97;;
239;SDS011;104;53.590;10.004;2023-04-03T00:04:05;10.83;;;6.00;;
239;SDS011;104;53.590;10.004;2023-04-03T00:06:33;11.23;;;6.00;;
239;SDS011;104;53.590;10.004;2023-04-03T00:09:00;9.57;;;6.10;;
239;SDS011;104;53.590;10.004;2023-04-03T00:11:27;9.57;;;5.77;;
239;SDS011;104;53.590;10.004;2023-04-03T00:13:54;12.70;;;6.30;;
239;SDS011;104;53.590;10.004;2023-04-03T00:16:21;10.13;;;6.07;;
239;SDS011;104;53.590;10.004;2023-04-03T00:18:48;11.57;;;6.07;;
239;SDS011;104;53.590;10.004;2023-04-03T00:21:17;8.50;;;5.83;;
239;SDS011;104;53.590;10.004;2023-04-03T00:23:44;12.80;;;5.90;;
239;SDS011;104;53.590;10.004;2023-04-03T00:26:11;9.93;;;5.93;;
239;SDS011;104;53.590;10.004;2023-04-03T00:28:38;10.43;;;5.73;;
239;SDS011;104;53.590;10.004;2023-04-03T00:31:06;10.10;;;5.70;;
239;SDS011;104;53.590;10.004;2023-04-03T00:33:33;11.20;;;6.20;;
239;SDS011;104;53.590;10.004;2023-04-03T00:36:04;12.23;;;6.40;;
239;SDS011;104;53.590;10.004;2023-04-03T00:38:33;10.37;;;6.10;;
239;SDS011;104;53.590;10.004;2023-04-03T00:41:00;10.00;;;5.97;;
239;SDS011;104;53.590;10.004;2023-04-03T00:43:27;11.57;;;5.80;;
239;SDS011;104;53.590;10.004;2023-04-03T00:45:55;11.73;;;5.40;;
239;SDS011;104;53.590;10.004;2023-04-03T00:48:24;9.03;;;5.80;;
239;SDS011;104;53.590;10.004;2023-04-03T00:50:54;9.00;;;5.50;;
239;SDS011;104;53.590;10.004;2023-04-03T00:53:23;11.70;;;6.30;;
239;SDS011;104;53.590;10.004;2023-04-03T00:55:54;10.47;;;5.90;;
239;SDS011;104;53.590;10.004;2023-04-03T00:58:24;10.33;;;5.30;;
239;SDS011;104;53.590;10.004;2023-04-03T01:00:55;12.33;;;6.20;;
239;SDS011;104;53.590;10.004;2023-04-03T01:03:24;12.17;;;6.60;;
239;SDS011;104;53.590;10.004;2023-04-03T01:05:51;10.20;;;5.77;;
239;SDS011;104;53.590;10.004;2023-04-03T01:08:18;17.60;;;7.00;;
239;SDS011;104;53.590;10.004;2023-04-03T01:10:45;7.97;;;5.30;;
239;SDS011;104;53.590;10.004;2023-04-03T01:13:22;8.70;;;5.60;;
239;SDS011;104;53.590;10.004;2023-04-03T01:15:51;9.97;;;6.10;;
239;SDS011;104;53.590;10.004;2023-04-03T01:18:18;10.07;;;5.77;;
239;SDS011;104;53.590;10.004;2023-04-03T01:20:52;10.97;;;6.20;;
239;SDS011;104;53.590;10.004;2023-04-03T01:23:40;10.67;;;5.50;;
239;SDS011;104;53.590;10.004;2023-04-03T01:26:19;10.77;;;6.20;;
239;SDS011;104;53.590;10.004;2023-04-03T01:28:47;13.30;;;6.27;;
239;SDS011;104;53.590;10.004;2023-04-03T01:31:16;10.33;;;6.10;;
239;SDS011;104;53.590;10.004;2023-04-03T01:33:48;10.57;;;6.07;;
239;SDS011;104;53.590;10.004;2023-04-03T01:36:16;9.80;;;6.13;;
239;SDS011;104;53.590;10.004;2023-04-03T01:38:45;11.60;;;6.30;;
239;SDS011;104;53.590;10.004;2023-04-03T01:41:12;8.20;;;5.73;;
239;SDS011;104;53.590;10.004;2023-04-03T01:43:40;9.60;;;5.70;;
239;SDS011;104;53.590;10.004;2023-04-03T01:46:07;9.50;;;6.00;;
239;SDS011;104;53.590;10.004;2023-04-03T01:48:34;11.70;;;6.10;;
239;SDS011;104;53.590;10.004;2023-04-03T01:51:03;11.87;;;6.57;;
239;SDS011;104;53.590;10.004;2023-04-03T01:53:30;11.20;;;6.40;;
239;SDS011;104;53.590;10.004;2023-04-03T01:55:57;10.43;;;5.80;;
239;SDS011;104;53.590;10.004;2023-04-03T01:58:24;8.33;;;5.63;;
239;SDS011;104;53.590;10.004;2023-04-03T02:00:52;11.53;;;5.87;;
239;SDS011;104;53.590;10.004;2023-04-03T02:03:19;14.43;;;6.70;;
239;SDS011;104;53.590;10.004;2023-04-03T02:05:46;9.03;;;5.93;;
239;SDS011;104;53.590;10.004;2023-04-03T02:08:14;9.43;;;6.03;;
239;SDS011;104;53.590;10.004;2023-04-03T02:10:43;12.50;;;6.50;;
239;SDS011;104;53.590;10.004;2023-04-03T02:13:10;11.93;;;5.80;;
239;SDS011;104;53.590;10.004;2023-04-03T02:15:38;11.53;;;6.60;;
239;SDS011;104;53.590;10.004;2023-04-03T02:18:05;12.10;;;6.63;;
239;SDS011;104;53.590;10.004;2023-04-03T02:20:32;11.10;;;6.40;;
239;SDS011;104;53.590;10.004;2023-04-03T02:23:00;13.03;;;6.90;;
239;SDS011;104;53.590;10.004;2023-04-03T02:25:29;10.40;;;6.40;;
239;SDS011;104;53.590;10.004;2023-04-03T02:27:57;11.83;;;6.57;;
239;SDS011;104;53.590;10.004;2023-04-03T02:30:24;17.93;;;6.30;;
239;SDS011;104;53.590;10.004;2023-04-03T02:32:52;11.60;;;6.80;;
239;SDS011;104;53.590;10.004;2023-04-03T02:35:19;10.47;;;6.37;;
239;SDS011;104;53.590;10.004;2023-04-03T02:37:46;15.00;;;7.00;;
239;SDS011;104;53.590;10.004;2023-04-03T02:40:13;11.37;;;6.47;;
239;SDS011;104;53.590;10.004;2023-04-03T02:42:42;12.80;;;7.00;;
239;SDS011;104;53.590;10.004;2023-04-03T02:45:10;9.77;;;6.40;;
239;SDS011;104;53.590;10.004;2023-04-03T02:47:37;12.07;;;6.77;;
239;SDS011;104;53.590;10.004;2023-04-03T02:50:04;11.60;;;6.37;;
239;SDS011;104;53.590;10.004;2023-04-03T02:52:31;12.17;;;6.30;;
239;SDS011;104;53.590;10.004;2023-04-03T02:54:58;13.40;;;6.60;;
239;SDS011;104;53.590;10.004;2023-04-03T02:57:25;25.07;;;6.90;;
239;SDS011;104;53.590;10.004;2023-04-03T02:59:54;13.07;;;6.80;;
239;SDS011;104;53.590;10.004;2023-04-03T03:02:21;8.97;;;6.17;;
239;SDS011;104;53.590;10.004;2023-04-03T03:04:48;16.13;;;6.00;;
239;SDS011;104;53.590;10.004;2023-04-03T03:07:15;10.40;;;5.90;;
239;SDS011;104;53.590;10.004;2023-04-03T03:09:42;11.00;;;6.70;;
239;SDS011;104;53.590;10.004;2023-04-03T03:12:10;11.90;;;6.60;;
239;SDS011;104;53.590;10.004;2023-04-03T03:14:37;12.17;;;6.87;;
239;SDS011;104;53.590;10.004;2023-04-03T03:17:05;13.47;;;6.93;;
239;SDS011;104;53.590;10.004;2023-04-03T03:19:33;15.50;;;7.70;;
239;SDS011;104;53.590;10.004;2023-04-03T03:22:00;11.23;;;5.87;;
239;SDS011;104;53.590;10.004;2023-04-03T03:24:27;9.63;;;6.03;;
239;SDS011;104;53.590;10.004;2023-04-03T03:26:54;11.50;;;6.30;;
239;SDS011;104;53.590;10.004;2023-04-03T03:29:22;9.17;;;5.97;;
239;SDS011;104;53.590;10.004;2023-04-03T03:31:49;10.60;;;6.00;;
239;SDS011;104;53.590;10.004;2023-04-03T03:34:17;14.70;;;7.40;;
239;SDS011;104;53.590;10.004;2023-04-03T03:36:44;12.80;;;6.23;;
239;SDS011;104;53.590;10.004;2023-04-03T03:39:12;9.13;;;6.20;;
239;SDS011;104;53.590;10.004;2023-04-03T03:41:39;13.17;;;6.47;;
239;SDS011;104;53.590;10.004;2023-04-03T03:44:06;18.00;;;7.80;;
239;SDS011;104;53.590;10.004;2023-04-03T03:46:33;12.53;;;6.93;;
239;SDS011;104;53.590;10.004;2023-04-03T03:49:00;12.60;;;6.70;;
239;SDS011;104;53.590;10.004;2023-04-03T03:51:28;11.87;;;6.80;;
239;SDS011;104;53.590;10.004;2023-04-03T03:53:55;14.03;;;7.40;;
239;SDS011;104;53.590;10.004;2023-04-03T03:56:23;12.07;;;6.93;;
239;SDS011;104;53.590;10.004;2023-04-03T03:58:50;13.03;;;7.17;;
239;SDS011;104;53.590;10.004;2023-04-03T04:01:17;17.90;;;8.30;;
239;SDS011;104;53.590;10.004;2023-04-03T04:03:44;13.13;;;6.87;;
239;SDS011;104;53.590;10.004;2023-04-03T04:06:11;13.80;;;7.23;;
239;SDS011;104;53.590;10.004;2023-04-03T04:08:40;11.93;;;6.23;;
239;SDS011;104;53.590;10.004;2023-04-03T04:11:07;13.00;;;6.60;;
239;SDS011;104;53.590;10.004;2023-04-03T04:13:34;11.67;;;7.10;;
239;SDS011;104;53.590;10.004;2023-04-03T04:16:01;10.33;;;6.77;;
239;SDS011;104;53.590;10.004;2023-04-03T04:18:28;10.10;;;6.43;;
239;SDS011;104;53.590;10.004;2023-04-03T04:20:56;13.47;;;7.30;;
239;SDS011;104;53.590;10.004;2023-04-03T04:23:23;16.17;;;7.67;;
239;SDS011;104;53.590;10.004;2023-04-03T04:25:51;11.70;;;6.87;;
239;SDS011;104;53.590;10.004;2023-04-03T04:28:19;12.67;;;7.00;;
239;SDS011;104;53.590;10.004;2023-04-03T04:30:46;12.43;;;7.20;;
239;SDS011;104;53.590;10.004;2023-04-03T04:33:13;16.47;;;7.83;;
239;SDS011;104;53.590;10.004;2023-04-03T04:35:41;12.90;;;7.57;;
239;SDS011;104;53.590;10.004;2023-04-03T04:38:08;12.83;;;7.30;;
239;SDS011;104;53.590;10.004;2023-04-03T04:40:36;13.97;;;7.40;;
239;SDS011;104;53.590;10.004;2023-04-03T04:43:05;52.50;;;6.90;;
239;SDS011;104;53.590;10.004;2023-04-03T04:45:32;13.97;;;7.20;;
239;SDS011;104;53.590;10.004;2023-04-03T04:47:59;14.20;;;6.80;;
239;SDS011;104;53.590;10.004;2023-04-03T04:50:26;15.17;;;7.20;;
239;SDS011;104;53.590;10.004;2023-04-03T04:52:53;14.13;;;7.50;;
239;SDS011;104;53.590;10.004;2023-04-03T04:55:20;13.73;;;6.73;;
239;SDS011;104;53.590;10.004;2023-04-03T04:57:48;17.47;;;8.10;;
239;SDS011;104;53.590;10.004;2023-04-03T05:00:17;13.27;;;6.70;;
239;SDS011;104;53.590;10.004;2023-04-03T05:02:45;10.07;;;6.33;;
239;SDS011;104;53.590;10.004;2023-04-03T05:05:12;10.00;;;6.53;;
239;SDS011;104;53.590;10.004;2023-04-03T05:07:39;15.13;;;7.47;;
239;SDS011;104;53.590;10.004;2023-04-03T05:10:07;13.13;;;6.77;;
239;SDS011;104;53.590;10.004;2023-04-03T05:12:35;12.20;;;7.07;;
239;SDS011;104;53.590;10.004;2023-04-03T05:15:02;12.27;;;7.20;;
239;SDS011;104;53.590;10.004;2023-04-03T05:17:31;14.47;;;7.37;;
239;SDS011;104;53.590;10.004;2023-04-03T05:19:59;11.60;;;6.30;;
239;SDS011;104;53.590;10.004;2023-04-03T05:22:26;10.20;;;6.20;;
239;SDS011;104;53.590;10.004;2023-04-03T05:24:54;12.67;;;6.70;;
239;SDS011;104;53.590;10.004;2023-04-03T05:27:21;12.63;;;6.70;;
239;SDS011;104;53.590;10.004;2023-04-03T05:29:49;15.90;;;7.80;;
239;SDS011;104;53.590;10.004;2023-04-03T05:32:16;15.50;;;7.00;;
239;SDS011;104;53.590;10.004;2023-04-03T05:34:45;12.37;;;7.33;;
239;SDS011;104;53.590;10.004;2023-04-03T05:37:12;14.37;;;7.40;;
239;SDS011;104;53.590;10.004;2023-04-03T05:39:39;19.30;;;7.53;;
239;SDS011;104;53.590;10.004;2023-04-03T05:42:06;12.90;;;7.37;;
239;SDS011;104;53.590;10.004;2023-04-03T05:44:34;14.77;;;7.50;;
239;SDS011;104;53.590;10.004;2023-04-03T05:47:01;14.33;;;7.00;;
239;SDS011;104;53.590;10.004;2023-04-03T05:49:29;15.03;;;7.47;;
239;SDS011;104;53.590;10.004;2023-04-03T05:51:57;11.47;;;6.77;;
239;SDS011;104;53.590;10.004;2023-04-03T05:54:25;13.77;;;7.13;;
239;SDS011;104;53.590;10.004;2023-04-03T05:56:53;13.90;;;7.37;;
239;SDS011;104;53.590;10.004;2023-04-03T05:59:20;16.63;;;7.33;;
239;SDS011;104;53.590;10.004;2023-04-03T06:01:48;20.87;;;7.87;;
239;SDS011;104;53.590;10.004;2023-04-03T06:04:15;19.73;;;8.83;;
239;SDS011;104;53.590;10.004;2023-04-03T06:06:47;16.63;;;8.40;;
239;SDS011;104;53.590;10.004;2023-04-03T06:09:18;22.23;;;9.10;;
239;SDS011;104;53.590;10.004;2023-04-03T06:11:46;22.90;;;8.10;;
239;SDS011;104;53.590;10.004;2023-04-03T06:14:13;17.53;;;9.27;;
239;SDS011;104;53.590;10.004;2023-04-03T06:16:41;18.70;;;9.73;;
239;SDS011;104;53.590;10.004;2023-04-03T06:19:08;13.30;;;7.93;;
239;SDS011;104;53.590;10.004;2023-04-03T06:21:36;15.87;;;8.80;;
239;SDS011;104;53.590;10.004;2023-04-03T06:24:03;15.47;;;8.27;;
239;SDS011;104;53.590;10.004;2023-04-03T06:26:32;18.67;;;8.20;;
239;SDS011;104;53.590;10.004;2023-04-03T06:29:00;24.13;;;9.83;;
239;SDS011;104;53.590;10.004;2023-04-03T06:31:27;28.83;;;9.80;;
239;SDS011;104;53.590;10.004;2023-04-03T06:33:55;19.93;;;8.30;;
239;SDS011;104;53.590;10.004;2023-04-03T06:36:22;13.70;;;7.83;;
239;SDS011;104;53.590;10.004;2023-04-03T06:38:50;18.37;;;8.93;;
239;SDS011;104;53.590;10.004;2023-04-03T06:41:18;12.83;;;7.70;;
239;SDS011;104;53.590;10.004;2023-04-03T06:43:47;17.00;;;8.90;;
239;SDS011;104;53.590;10.004;2023-04-03T06:46:15;16.10;;;8.90;;
239;SDS011;104;53.590;10.004;2023-04-03T06:48:43;17.00;;;8.20;;
239;SDS011;104;53.590;10.004;2023-04-03T06:51:14;20.30;;;9.67;;
239;SDS011;104;53.590;10.004;2023-04-03T06:53:44;15.07;;;8.27;;
239;SDS011;104;53.590;10.004;2023-04-03T06:56:12;24.23;;;9.10;;
239;SDS011;104;53.590;10.004;2023-04-03T06:58:40;16.07;;;8.47;;
239;SDS011;104;53.590;10.004;2023-04-03T07:01:09;22.83;;;8.37;;
239;SDS011;104;53.590;10.004;2023-04-03T07:03:37;18.50;;;7.87;;
239;SDS011;104;53.590;10.004;2023-04-03T07:06:05;15.93;;;8.50;;
239;SDS011;104;53.590;10.004;2023-04-03T07:08:33;14.10;;;7.30;;
239;SDS011;104;53.590;10.004;2023-04-03T07:11:00;18.53;;;8.70;;
239;SDS011;104;53.590;10.004;2023-04-03T07:13:28;19.57;;;8.30;;
239;SDS011;104;53.590;10.004;2023-04-03T07:15:55;15.00;;;7.50;;
239;SDS011;104;53.590;10.004;2023-04-03T07:18:24;12.03;;;6.87;;
239;SDS011;104;53.590;10.004;2023-04-03T07:20:52;17.73;;;9.10;;
239;SDS011;104;53.590;10.004;2023-04-03T07:23:19;17.87;;;7.10;;
239;SDS011;104;53.590;10.004;2023-04-03T07:25:46;16.10;;;8.47;;
239;SDS011;104;53.590;10.004;2023-04-03T07:28:15;13.57;;;7.00;;
239;SDS011;104;53.590;10.004;2023-04-03T07:30:43;17.93;;;7.47;;
239;SDS011;104;53.590;10.004;2023-04-03T07:33:11;12.27;;;6.50;;
239;SDS011;104;53.590;10.004;2023-04-03T07:35:40;20.13;;;8.63;;
239;SDS011;104;53.590;10.004;2023-04-03T07:38:08;15.30;;;7.57;;
239;SDS011;104;53.590;10.004;2023-04-03T07:40:35;12.20;;;7.57;;
239;SDS011;104;53.590;10.004;2023-04-03T07:43:03;15.17;;;7.40;;
239;SDS011;104;53.590;10.004;2023-04-03T07:45:30;10.57;;;6.27;;
239;SDS011;104;53.590;10.004;2023-04-03T07:47:58;12.73;;;6.20;;
239;SDS011;104;53.590;10.004;2023-04-03T07:50:25;15.67;;;6.70;;
239;SDS011;104;53.590;10.004;2023-04-03T07:52:56;12.90;;;6.10;;
239;SDS011;104;53.590;10.004;2023-04-03T07:55:23;17.30;;;6.87;;
239;SDS011;104;53.590;10.004;2023-04-03T07:57:51;11.47;;;5.90;;
239;SDS011;104;53.590;10.004;2023-04-03T08:00:18;13.00;;;6.37;;
239;SDS011;104;53.590;10.004;2023-04-03T08:02:45;11.33;;;5.50;;
239;SDS011;104;53.590;10.004;2023-04-03T08:05:16;15.07;;;7.07;;
239;SDS011;104;53.590;10.004;2023-04-03T08:07:43;11.57;;;6.80;;
239;SDS011;104;53.590;10.004;2023-04-03T08:10:12;14.20;;;6.83;;
239;SDS011;104;53.590;10.004;2023-04-03T08:12:40;13.10;;;7.07;;
239;SDS011;104;53.590;10.004;2023-04-03T08:15:08;8.90;;;5.27;;
239;SDS011;104;53.590;10.004;2023-04-03T08:17:35;12.97;;;6.27;;
239;SDS011;104;53.590;10.004;2023-04-03T08:20:04;13.67;;;6.40;;
239;SDS011;104;53.590;10.004;2023-04-03T08:22:32;10.87;;;6.10;;
239;SDS011;104;53.590;10.004;2023-04-03T08:24:59;10.10;;;5.80;;
239;SDS011;104;53.590;10.004;2023-04-03T08:27:29;10.20;;;5.70;;
239;SDS011;104;53.590;10.004;2023-04-03T08:29:56;12.77;;;6.43;;
239;SDS011;104;53.590;10.004;2023-04-03T08:32:23;11.30;;;5.50;;
239;SDS011;104;53.590;10.004;2023-04-03T08:34:51;13.73;;;6.03;;
239;SDS011;104;53.590;10.004;2023-04-03T08:37:18;14.33;;;6.30;;
239;SDS011;104;53.590;10.004;2023-04-03T08:39:45;9.50;;;5.20;;
239;SDS011;104;53.590;10.004;2023-04-03T08:42:15;18.33;;;6.80;;
239;SDS011;104;53.590;10.004;2023-04-03T08:44:52;12.40;;;5.63;;
239;SDS011;104;53.590;10.004;2023-04-03T08:47:28;10.47;;;5.37;;
239;SDS011;104;53.590;10.004;2023-04-03T08:50:03;10.17;;;5.40;;
239;SDS011;104;53.590;10.004;2023-04-03T08:52:34;9.57;;;4.90;;
239;SDS011;104;53.590;10.004;2023-04-03T08:55:05;9.27;;;5.03;;
239;SDS011;104;53.590;10.004;2023-04-03T08:57:41;11.60;;;4.90;;
239;SDS011;104;53.590;10.004;2023-04-03T09:00:16;12.10;;;5.97;;
239;SDS011;104;53.590;10.004;2023-04-03T09:02:46;7.37;;;4.67;;
239;SDS011;104;53.590;10.004;2023-04-03T09:05:14;6.53;;;3.70;;
239;SDS011;104;53.590;10.004;2023-04-03T09:07:43;12.33;;;5.33;;
239;SDS011;104;53.590;10.004;2023-04-03T09:10:13;8.30;;;4.50;;
239;SDS011;104;53.590;10.004;2023-04-03T09:12:43;11.43;;;4.60;;
239;SDS011;104;53.590;10.004;2023-04-03T09:15:19;4.97;;;3.03;;
239;SDS011;104;53.590;10.004;2023-04-03T09:17:52;13.83;;;3.53;;
239;SDS011;104;53.590;10.004;2023-04-03T09:20:26;9.40;;;3.93;;
239;SDS011;104;53.590;10.004;2023-04-03T09:23:08;15.60;;;4.20;;
239;SDS011;104;53.590;10.004;2023-04-03T09:25:38;13.23;;;4.53;;
239;SDS011;104;53.590;10.004;2023-04-03T09:28:06;9.77;;;4.50;;
239;SDS011;104;53.590;10.004;2023-04-03T09:30:36;12.90;;;5.10;;
239;SDS011;104;53.590;10.004;2023-04-03T09:33:04;17.80;;;5.13;;
239;SDS011;104;53.590;10.004;2023-04-03T09:35:32;9.90;;;4.23;;
239;SDS011;104;53.590;10.004;2023-04-03T09:38:01;17.00;;;4.60;;
239;SDS011;104;53.590;10.004;2023-04-03T09:40:41;4.97;;;3.00;;
239;SDS011;104;53.590;10.004;2023-04-03T09:43:22;10.93;;;4.43;;
239;SDS011;104;53.590;10.004;2023-04-03T09:45:53;12.00;;;4.63;;
239;SDS011;104;53.590;10.004;2023-04-03T09:48:21;7.83;;;3.77;;
239;SDS011;104;53.590;10.004;2023-04-03T09:50:52;7.40;;;3.57;;
239;SDS011;104;53.590;10.004;2023-04-03T09:53:27;9.53;;;3.47;;
239;SDS011;104;53.590;10.004;2023-04-03T09:56:00;8.53;;;4.40;;
239;SDS011;104;53.590;10.004;2023-04-03T09:58:29;12.03;;;4.60;;
239;SDS011;104;53.590;10.004;2023-04-03T10:01:00;13.70;;;4.40;;
239;SDS011;104;53.590;10.004;2023-04-03T10:03:28;8.80;;;3.30;;
239;SDS011;104;53.590;10.004;2023-04-03T10:05:57;9.20;;;4.27;;
239;SDS011;104;53.590;10.004;2023-04-03T10:08:25;13.63;;;4.97;;
239;SDS011;104;53.590;10.004;2023-04-03T10:13:55;10.20;;;4.47;;
239;SDS011;104;53.590;10.004;2023-04-03T10:16:27;8.43;;;3.60;;
239;SDS011;104;53.590;10.004;2023-04-03T10:19:03;15.30;;;5.10;;
239;SDS011;104;53.590;10.004;2023-04-03T10:21:40;11.90;;;4.60;;
239;SDS011;104;53.590;10.004;2023-04-03T10:24:13;17.37;;;4.37;;
239;SDS011;104;53.590;10.004;2023-04-03T10:26:48;8.83;;;3.70;;
239;SDS011;104;53.590;10.004;2023-04-03T10:29:21;7.60;;;3.70;;
239;SDS011;104;53.590;10.004;2023-04-03T10:31:55;10.70;;;4.73;;
239;SDS011;104;53.590;10.004;2023-04-03T10:34:32;12.60;;;5.00;;
239;SDS011;104;53.590;10.004;2023-04-03T10:37:05;11.90;;;4.40;;
239;SDS011;104;53.590;10.004;2023-04-03T10:39:34;12.70;;;4.60;;
239;SDS011;104;53.590;10.004;2023-04-03T10:42:08;7.83;;;3.67;;
239;SDS011;104;53.590;10.004;2023-04-03T10:44:42;10.70;;;4.07;;
239;SDS011;104;53.590;10.004;2023-04-03T10:47:25;11.10;;;4.47;;
239;SDS011;104;53.590;10.004;2023-04-03T10:50:00;18.10;;;6.50;;
239;SDS011;104;53.590;10.004;2023-04-03T10:52:37;10.73;;;4.23;;
239;SDS011;104;53.590;10.004;2023-04-03T10:55:10;10.00;;;4.30;;
239;SDS011;104;53.590;10.004;2023-04-03T10:57:41;10.63;;;4.53;;
239;SDS011;104;53.590;10.004;2023-04-03T11:00:13;16.10;;;5.20;;
239;SDS011;104;53.590;10.004;2023-04-03T11:02:48;15.93;;;5.63;;
239;SDS011;104;53.590;10.004;2023-04-03T11:05:21;10.87;;;4.37;;
239;SDS011;104;53.590;10.004;2023-04-03T11:07:52;10.80;;;4.23;;
239;SDS011;104;53.590;10.004;2023-04-03T11:10:23;10.10;;;3.63;;
239;SDS011;104;53.590;10.004;2023-04-03T11:12:58;10.80;;;4.23;;
239;SDS011;104;53.590;10.004;2023-04-03T11:15:27;13.53;;;5.33;;
239;SDS011;104;53.590;10.004;2023-04-03T11:18:00;8.90;;;4.30;;
239;SDS011;104;53.590;10.004;2023-04-03T11:20:30;5.93;;;3.57;;
239;SDS011;104;53.590;10.004;2023-04-03T11:23:00;7.23;;;3.50;;
239;SDS011;104;53.590;10.004;2023-04-03T11:25:30;12.37;;;4.90;;
239;SDS011;104;53.590;10.004;2023-04-03T11:27:59;13.83;;;4.03;;
239;SDS011;104;53.590;10.004;2023-04-03T11:30:31;7.27;;;3.70;;
239;SDS011;104;53.590;10.004;2023-04-03T11:33:12;8.20;;;3.70;;
239;SDS011;104;53.590;10.004;2023-04-03T11:36:07;5.03;;;3.33;;
239;SDS011;104;53.590;10.004;2023-04-03T11:38:41;11.90;;;3.43;;
239;SDS011;104;53.590;10.004;2023-04-03T11:41:09;5.73;;;3.30;;
239;SDS011;104;53.590;10.004;2023-04-03T11:43:40;8.20;;;3.73;;
239;SDS011;104;53.590;10.004;2023-04-03T11:46:08;8.67;;;3.40;;
239;SDS011;104;53.590;10.004;2023-04-03T11:48:47;6.30;;;3.40;;
239;SDS011;104;53.590;10.004;2023-04-03T11:54:42;4.03;;;3.17;;
239;SDS011;104;53.590;10.004;2023-04-03T12:12:42;6.13;;;3.57;;
239;SDS011;104;53.590;10.004;2023-04-03T12:15:17;6.63;;;3.70;;
239;SDS011;104;53.590;10.004;2023-04-03T12:17:51;16.63;;;4.20;;
239;SDS011;104;53.590;10.004;2023-04-03T12:23:26;6.33;;;3.40;;
239;SDS011;104;53.590;10.004;2023-04-03T12:25:59;8.60;;;3.93;;
239;SDS011;104;53.590;10.004;2023-04-03T12:28:28;6.93;;;3.60;;
239;SDS011;104;53.590;10.004;2023-04-03T12:30:55;7.63;;;3.90;;
239;SDS011;104;53.590;10.004;2023-04-03T12:33:27;6.33;;;3.07;;
239;SDS011;104;53.590;10.004;2023-04-03T12:36:05;7.10;;;3.80;;
239;SDS011;104;53.590;10.004;2023-04-03T12:41:29;8.63;;;4.00;;
239;SDS011;104;53.590;10.004;2023-04-03T12:44:10;7.57;;;4.07;;
239;SDS011;104;53.590;10.004;2023-04-03T12:46:50;17.13;;;5.30;;
239;SDS011;104;53.590;10.004;2023-04-03T12:49:24;10.90;;;4.83;;
239;SDS011;104;53.590;10.004;2023-04-03T12:52:01;6.53;;;4.03;;
239;SDS011;104;53.590;10.004;2023-04-03T12:54:31;8.80;;;4.60;;
239;SDS011;104;53.590;10.004;2023-04-03T12:57:11;10.90;;;4.37;;
239;SDS011;104;53.590;10.004;2023-04-03T12:59:39;7.77;;;4.27;;
239;SDS011;104;53.590;10.004;2023-04-03T13:02:10;9.60;;;4.47;;
239;SDS011;104;53.590;10.004;2023-04-03T13:04:42;7.87;;;3.93;;
239;SDS011;104;53.590;10.004;2023-04-03T13:07:19;11.90;;;4.33;;
239;SDS011;104;53.590;10.004;2023-04-03T13:09:54;8.30;;;4.00;;
239;SDS011;104;53.590;10.004;2023-04-03T13:12:22;5.87;;;3.63;;
239;SDS011;104;53.590;10.004;2023-04-03T13:14:52;9.30;;;4.23;;
239;SDS011;104;53.590;10.004;2023-04-03T13:17:21;11.77;;;4.80;;
239;SDS011;104;53.590;10.004;2023-04-03T13:19:48;9.10;;;4.73;;
239;SDS011;104;53.590;10.004;2023-04-03T13:22:24;13.60;;;4.80;;
239;SDS011;104;53.590;10.004;2023-04-03T13:24:54;5.73;;;3.57;;
239;SDS011;104;53.590;10.004;2023-04-03T13:27:24;7.93;;;3.83;;
239;SDS011;104;53.590;10.004;2023-04-03T13:29:52;9.87;;;4.50;;
239;SDS011;104;53.590;10.004;2023-04-03T13:32:21;7.70;;;3.93;;
239;SDS011;104;53.590;10.004;2023-04-03T13:34:49;7.60;;;3.70;;
239;SDS011;104;53.590;10.004;2023-04-03T13:37:20;10.17;;;4.50;;
239;SDS011;104;53.590;10.004;2023-04-03T13:39:58;12.13;;;5.17;;
239;SDS011;104;53.590;10.004;2023-04-03T13:42:28;7.27;;;3.70;;
239;SDS011;104;53.590;10.004;2023-04-03T13:45:10;8.10;;;3.50;;
239;SDS011;104;53.590;10.004;2023-04-03T13:47:45;11.50;;;4.20;;
239;SDS011;104;53.590;10.004;2023-04-03T13:50:15;10.10;;;4.60;;
239;SDS011;104;53.590;10.004;2023-04-03T13:52:45;21.83;;;6.73;;
239;SDS011;104;53.590;10.004;2023-04-03T13:55:20;11.20;;;4.43;;
239;SDS011;104;53.590;10.004;2023-04-03T13:57:54;14.37;;;4.00;;
239;SDS011;104;53.590;10.004;2023-04-03T14:00:27;14.03;;;3.70;;
239;SDS011;104;53.590;10.004;2023-04-03T14:03:02;5.30;;;3.30;;
239;SDS011;104;53.590;10.004;2023-04-03T14:05:37;8.47;;;4.20;;
239;SDS011;104;53.590;10.004;2023-04-03T14:08:05;13.80;;;4.50;;
239;SDS011;104;53.590;10.004;2023-04-03T14:10:33;10.83;;;4.47;;
239;SDS011;104;53.590;10.004;2023-04-03T14:13:01;7.03;;;3.67;;
239;SDS011;104;53.590;10.004;2023-04-03T14:15:29;9.00;;;3.67;;
239;SDS011;104;53.590;10.004;2023-04-03T14:17:57;7.20;;;3.50;;
239;SDS011;104;53.590;10.004;2023-04-03T14:20:25;9.77;;;4.00;;
239;SDS011;104;53.590;10.004;2023-04-03T14:22:53;11.93;;;4.23;;
239;SDS011;104;53.590;10.004;2023-04-03T14:25:21;8.00;;;3.90;;
239;SDS011;104;53.590;10.004;2023-04-03T14:27:51;6.43;;;3.30;;
239;SDS011;104;53.590;10.004;2023-04-03T14:30:21;7.03;;;3.90;;
239;SDS011;104;53.590;10.004;2023-04-03T14:32:48;17.20;;;5.03;;
239;SDS011;104;53.590;10.004;2023-04-03T14:35:16;5.33;;;3.53;;
239;SDS011;104;53.590;10.004;2023-04-03T14:37:45;4.50;;;3.30;;
239;SDS011;104;53.590;10.004;2023-04-03T14:40:13;6.43;;;3.27;;
239;SDS011;104;53.590;10.004;2023-04-03T14:42:42;12.37;;;4.33;;
239;SDS011;104;53.590;10.004;2023-04-03T14:45:11;16.33;;;7.07;;
239;SDS011;104;53.590;10.004;2023-04-03T14:47:41;11.93;;;4.87;;
239;SDS011;104;53.590;10.004;2023-04-03T14:50:12;8.37;;;4.03;;
239;SDS011;104;53.590;10.004;2023-04-03T14:52:43;16.93;;;4.93;;
239;SDS011;104;53.590;10.004;2023-04-03T14:55:11;11.07;;;4.93;;
239;SDS011;104;53.590;10.004;2023-04-03T14:57:41;8.70;;;4.50;;
239;SDS011;104;53.590;10.004;2023-04-03T15:00:13;8.80;;;3.90;;
239;SDS011;104;53.590;10.004;2023-04-03T15:02:41;7.40;;;3.90;;
239;SDS011;104;53.590;10.004;2023-04-03T15:05:09;10.27;;;4.67;;
239;SDS011;104;53.590;10.004;2023-04-03T15:07:38;9.73;;;4.33;;
239;SDS011;104;53.590;10.004;2023-04-03T15:10:14;9.93;;;4.50;;
239;SDS011;104;53.590;10.004;2023-04-03T15:12:43;7.20;;;3.67;;
239;SDS011;104;53.590;10.004;2023-04-03T15:18:15;9.40;;;4.30;;
239;SDS011;104;53.590;10.004;2023-04-03T15:20:45;7.53;;;4.20;;
239;SDS011;104;53.590;10.004;2023-04-03T15:23:13;9.63;;;4.00;;
239;SDS011;104;53.590;10.004;2023-04-03T15:25:41;10.47;;;4.93;;
239;SDS011;104;53.590;10.004;2023-04-03T15:28:09;11.23;;;4.73;;
239;SDS011;104;53.590;10.004;2023-04-03T15:30:43;11.03;;;4.40;;
239;SDS011;104;53.590;10.004;2023-04-03T15:33:11;11.83;;;5.17;;
239;SDS011;104;53.590;10.004;2023-04-03T15:35:39;14.90;;;5.00;;
239;SDS011;104;53.590;10.004;2023-04-03T15:38:07;7.50;;;3.67;;
239;SDS011;104;53.590;10.004;2023-04-03T15:40:34;13.87;;;5.80;;
239;SDS011;104;53.590;10.004;2023-04-03T15:43:01;8.43;;;4.60;;
239;SDS011;104;53.590;10.004;2023-04-03T15:45:29;6.27;;;4.10;;
239;SDS011;104;53.590;10.004;2023-04-03T15:47:57;17.17;;;5.13;;
239;SDS011;104;53.590;10.004;2023-04-03T15:50:25;8.60;;;4.30;;
239;SDS011;104;53.590;10.004;2023-04-03T15:52:54;13.30;;;4.80;;
239;SDS011;104;53.590;10.004;2023-04-03T15:55:23;8.97;;;3.80;;
239;SDS011;104;53.590;10.004;2023-04-03T15:57:51;17.87;;;5.80;;
239;SDS011;104;53.590;10.004;2023-04-03T16:00:22;7.67;;;3.80;;
239;SDS011;104;53.590;10.004;2023-04-03T16:02:50;20.87;;;9.73;;
239;SDS011;104;53.590;10.004;2023-04-03T16:05:21;11.10;;;4.30;;